createdAt,value
2019-05-17T00:00:18.921Z,100305.66
2019-05-17T00:02:47.462Z,100303.09
2019-05-17T00:05:17.762Z,100294.55
2019-05-17T00:07:47.506Z,100293.70
2019-05-17T00:10:17.304Z,100292.84
2019-05-17T00:12:47.095Z,100289.39
2019-05-17T00:15:16.924Z,100286.83
2019-05-17T00:17:46.981Z,100281.28
2019-05-17T00:20:17.455Z,100282.13
2019-05-17T00:22:47.173Z,100277.86
2019-05-17T00:25:17.219Z,100275.30
2019-05-17T00:27:47.491Z,100271.46
2019-05-17T00:30:17.505Z,100266.34
2019-05-17T00:32:47.596Z,100265.48
2019-05-17T00:35:17.905Z,100257.37
2019-05-17T00:37:46.679Z,100261.19
2019-05-17T00:40:16.675Z,100243.68
2019-05-17T00:42:46.685Z,100247.52
2019-05-17T00:45:17.501Z,100248.38
2019-05-17T00:47:46.801Z,100246.24
2019-05-17T00:50:17.036Z,100241.97
2019-05-17T00:52:47.437Z,100247.52
2019-05-17T00:55:17.649Z,100240.27
2019-05-17T00:57:47.454Z,100234.72
2019-05-17T01:00:17.307Z,100238.56
2019-05-17T01:02:46.742Z,100233.44
2019-05-17T01:05:17.037Z,100233.01
2019-05-17T01:07:47.018Z,100228.31
2019-05-17T01:10:16.868Z,100230.45
2019-05-17T01:12:45.516Z,100227.89
2019-05-17T01:15:16.780Z,100224.05
2019-05-17T01:17:47.291Z,100218.92
2019-05-17T01:20:17.374Z,100222.77
2019-05-17T01:22:47.407Z,100214.66
2019-05-17T01:25:17.222Z,100215.52
2019-05-17T01:27:47.456Z,100206.55
2019-05-17T01:30:17.608Z,100213.37
2019-05-17T01:32:46.522Z,100206.98
2019-05-17T01:35:16.717Z,100206.13
2019-05-17T01:37:47.530Z,100203.13
2019-05-17T01:40:17.636Z,100203.53
2019-05-17T01:42:46.739Z,100199.26
2019-05-17T01:45:16.678Z,100189.02
2019-05-17T01:47:47.558Z,100194.14
2019-05-17T01:50:17.570Z,100192.01
2019-05-17T01:52:46.302Z,100192.01
2019-05-17T01:55:17.176Z,100195.00
2019-05-17T01:57:47.644Z,100186.89
2019-05-17T02:00:17.477Z,100186.46
2019-05-17T02:02:53.455Z,100181.77
2019-05-17T02:05:22.119Z,100182.62
2019-05-17T02:07:50.522Z,100183.47
2019-05-17T02:10:19.409Z,100178.35
2019-05-17T02:12:49.103Z,100169.39
2019-05-17T02:15:18.297Z,100172.80
2019-05-17T02:17:47.086Z,100168.97
2019-05-17T02:20:17.094Z,100163.84
2019-05-17T02:22:47.313Z,100169.81
2019-05-17T02:25:16.854Z,100167.69
2019-05-17T02:27:45.492Z,100166.41
2019-05-17T02:30:15.384Z,100166.84
2019-05-17T02:32:44.638Z,100161.72
2019-05-17T02:35:14.605Z,100165.55
2019-05-17T02:37:43.834Z,100162.56
2019-05-17T02:40:14.963Z,100164.27
2019-05-17T02:42:43.999Z,100156.14
2019-05-17T02:45:13.988Z,100151.83
2019-05-17T02:47:43.534Z,100152.27
2019-05-17T02:50:13.603Z,100160.37
2019-05-17T02:52:43.537Z,100150.55
2019-05-17T02:55:13.803Z,100151.41
2019-05-17T02:57:43.587Z,100155.25
2019-05-17T03:00:14.157Z,100156.09
2019-05-17T03:02:43.885Z,100155.25
2019-05-17T03:05:14.181Z,100152.69
2019-05-17T03:07:43.928Z,100157.38
2019-05-17T03:10:23.053Z,100158.66
2019-05-17T03:12:44.440Z,100155.25
2019-05-17T03:15:13.587Z,100154.82
2019-05-17T03:17:44.036Z,100148.85
2019-05-17T03:20:14.052Z,100141.17
2019-05-17T03:22:44.100Z,100143.73
2019-05-17T03:25:13.977Z,100145.44
2019-05-17T03:27:43.416Z,100145.44
2019-05-17T03:30:17.161Z,100136.91
2019-05-17T03:32:47.526Z,100136.48
2019-05-17T03:35:17.204Z,100136.48
2019-05-17T03:37:44.826Z,100132.61
2019-05-17T03:40:30.651Z,100128.77
2019-05-17T03:42:44.019Z,100130.08
2019-05-17T03:45:13.911Z,100127.48
2019-05-17T03:47:44.498Z,100132.18
2019-05-17T03:50:13.766Z,100132.18
2019-05-17T03:52:44.285Z,100130.91
2019-05-17T03:58:03.139Z,100123.65
2019-05-17T04:00:34.872Z,100116.83
2019-05-17T04:03:02.926Z,100119.38
2019-05-17T04:05:33.369Z,100121.95
2019-05-17T04:08:03.720Z,100124.08
2019-05-17T04:10:33.354Z,100119.81
2019-05-17T04:13:04.174Z,100120.67
2019-05-17T04:15:33.016Z,100118.95
2019-05-17T04:18:04.205Z,100120.67
2019-05-17T04:20:33.235Z,100116.83
2019-05-17T04:23:03.853Z,100110.86
2019-05-17T04:25:33.515Z,100111.70
2019-05-17T04:28:03.016Z,100111.70
2019-05-17T04:30:32.725Z,100114.27
2019-05-17T04:33:03.652Z,100108.72
2019-05-17T04:35:32.787Z,100115.13
2019-05-17T04:38:04.331Z,100108.30
2019-05-17T04:40:34.082Z,100112.98
2019-05-17T04:43:03.262Z,100108.72
2019-05-17T04:45:33.509Z,100103.61
2019-05-17T04:48:03.979Z,100098.48
2019-05-17T04:50:33.711Z,100104.88
2019-05-17T04:53:02.909Z,100105.34
2019-05-17T04:55:34.100Z,100102.36
2019-05-17T04:58:04.076Z,100103.18
2019-05-17T05:00:34.031Z,100101.47
2019-05-17T05:03:04.187Z,100106.16
2019-05-17T05:05:33.449Z,100106.59
2019-05-17T05:08:02.999Z,100099.38
2019-05-17T05:10:33.773Z,100101.08
2019-05-17T05:13:03.151Z,100096.38
2019-05-17T05:15:44.200Z,100098.52
2019-05-17T05:18:13.393Z,100096.81
2019-05-17T05:20:43.608Z,100098.09
2019-05-17T05:23:13.147Z,100102.35
2019-05-17T05:25:43.075Z,100103.20
2019-05-17T05:28:11.875Z,100102.81
2019-05-17T05:30:42.301Z,100102.38
2019-05-17T05:33:12.982Z,100099.82
2019-05-17T05:35:42.498Z,100100.70
2019-05-17T05:38:12.911Z,100101.55
2019-05-17T05:40:42.743Z,100105.83
2019-05-17T05:43:11.985Z,100102.41
2019-05-17T05:45:41.658Z,100104.97
2019-05-17T05:48:12.453Z,100108.80
2019-05-17T05:50:42.567Z,100100.69
2019-05-17T05:53:12.933Z,100102.40
2019-05-17T05:55:42.842Z,100099.41
2019-05-17T05:58:12.123Z,100099.41
2019-05-17T06:00:42.654Z,100099.43
2019-05-17T06:03:12.000Z,100094.30
2019-05-17T06:05:42.270Z,100091.75
2019-05-17T06:08:12.204Z,100093.88
2019-05-17T06:10:42.607Z,100093.88
2019-05-17T06:13:12.977Z,100094.72
2019-05-17T06:15:42.929Z,100095.57
2019-05-17T06:18:12.328Z,100093.44
2019-05-17T06:20:41.794Z,100093.02
2019-05-17T06:23:12.237Z,100090.45
2019-05-17T06:25:43.144Z,100087.03
2019-05-17T06:28:11.525Z,100087.45
2019-05-17T06:30:42.680Z,100093.01
2019-05-17T06:33:12.067Z,100091.30
2019-05-17T06:35:42.392Z,100091.73
2019-05-17T06:38:12.036Z,100091.72
2019-05-17T06:40:42.137Z,100093.86
2019-05-17T06:43:12.953Z,100085.73
2019-05-17T06:45:41.837Z,100081.06
2019-05-17T06:48:11.859Z,100077.20
2019-05-17T06:50:42.968Z,100078.47
2019-05-17T06:53:12.297Z,100083.61
2019-05-17T06:55:42.400Z,100082.31
2019-05-17T06:58:11.841Z,100081.45
2019-05-17T07:00:40.593Z,100080.61
2019-05-17T07:03:09.553Z,100080.18
2019-05-17T07:05:50.197Z,100077.61
2019-05-17T07:08:20.144Z,100076.75
2019-05-17T07:10:50.273Z,100077.19
2019-05-17T07:13:19.815Z,100072.47
2019-05-17T07:15:50.959Z,100071.18
2019-05-17T07:18:19.466Z,100070.76
2019-05-17T07:20:50.000Z,100072.05
2019-05-17T07:23:19.697Z,100070.34
2019-05-17T07:25:50.403Z,100074.16
2019-05-17T07:28:19.933Z,100069.91
2019-05-17T07:30:50.341Z,100069.89
2019-05-17T07:33:19.916Z,100066.03
2019-05-17T07:35:50.122Z,100063.02
2019-05-17T07:38:19.936Z,100062.59
2019-05-17T07:40:50.123Z,100054.48
2019-05-17T07:43:20.794Z,100060.02
2019-05-17T07:45:49.637Z,100061.33
2019-05-17T07:48:19.987Z,100056.17
2019-05-17T07:50:50.213Z,100050.17
2019-05-17T07:53:20.070Z,100049.31
2019-05-17T07:55:50.640Z,100050.17
2019-05-17T07:58:21.353Z,100054.02
2019-05-17T08:00:51.125Z,100042.06
2019-05-17T08:03:20.933Z,100036.52
2019-05-17T08:05:50.554Z,100039.08
2019-05-17T08:08:20.862Z,100033.51
2019-05-17T08:10:51.086Z,100021.11
2019-05-17T08:13:27.340Z,100025.80
2019-05-17T08:15:50.206Z,100025.78
2019-05-17T08:18:20.361Z,100026.66
2019-05-17T08:20:50.176Z,100021.52
2019-05-17T08:23:20.213Z,100021.49
2019-05-17T08:25:53.698Z,100016.36
2019-05-17T08:28:21.389Z,100011.61
2019-05-17T08:30:50.199Z,100015.02
2019-05-17T08:33:19.472Z,100006.42
2019-05-17T08:35:49.485Z,100005.11
2019-05-17T08:38:19.759Z,100009.78
2019-05-17T08:40:50.750Z,100007.65
2019-05-17T08:43:21.103Z,100006.82
2019-05-17T08:45:50.148Z,100014.05
2019-05-17T08:48:20.587Z,100007.23
2019-05-17T08:50:49.482Z,100008.51
2019-05-17T08:53:19.844Z,100007.23
2019-05-17T08:55:50.089Z,100000.77
2019-05-17T08:58:21.299Z,100004.14
2019-05-17T09:00:50.470Z,100002.42
2019-05-17T09:03:19.581Z,100000.28
2019-05-17T09:05:52.082Z,99997.67
2019-05-17T09:08:20.331Z,100001.50
2019-05-17T09:10:50.424Z,99996.38
2019-05-17T09:13:19.569Z,99992.53
2019-05-17T09:15:49.436Z,99990.83
2019-05-17T09:18:20.386Z,99991.67
2019-05-17T09:20:49.513Z,99988.27
2019-05-17T09:23:19.751Z,99988.25
2019-05-17T09:25:50.088Z,99988.66
2019-05-17T09:28:20.527Z,99990.34
2019-05-17T09:30:50.693Z,99986.91
2019-05-17T09:33:20.420Z,99986.05
2019-05-17T09:35:50.040Z,99986.87
2019-05-17T09:38:20.389Z,99983.44
2019-05-17T09:40:50.506Z,99983.44
2019-05-17T09:43:20.473Z,99985.55
2019-05-17T09:45:50.845Z,99976.59
2019-05-17T09:48:19.818Z,99972.30
2019-05-17T09:50:50.427Z,99970.15
2019-05-17T09:53:20.149Z,99972.70
2019-05-17T09:55:49.756Z,99967.13
2019-05-17T09:58:21.431Z,99964.16
2019-05-17T10:00:49.507Z,99967.56
2019-05-17T10:03:23.245Z,99969.70
2019-05-17T10:05:49.599Z,99972.69
2019-05-17T10:08:18.320Z,99957.34
2019-05-17T10:11:02.252Z,99970.56
2019-05-17T10:13:17.186Z,99962.89
2019-05-17T10:15:45.649Z,99964.61
2019-05-17T10:18:14.048Z,99968.92
2019-05-17T10:20:42.460Z,99962.13
2019-05-17T10:23:11.006Z,99966.84
2019-05-17T10:25:39.978Z,99968.54
2019-05-17T10:28:10.007Z,99965.54
2019-05-17T10:30:39.807Z,99965.14
2019-05-17T10:33:09.929Z,99965.64
2019-05-17T10:35:40.736Z,99967.38
2019-05-17T10:38:10.250Z,99963.52
2019-05-17T10:40:40.941Z,99969.91
2019-05-17T10:43:10.054Z,99963.87
2019-05-17T10:45:40.158Z,99956.98
2019-05-17T10:48:10.212Z,99958.69
2019-05-17T10:50:40.715Z,99959.95
2019-05-17T10:53:09.977Z,99960.81
2019-05-17T10:55:39.706Z,99956.53
2019-05-17T10:58:10.068Z,99960.77
2019-05-17T11:00:41.163Z,99964.11
2019-05-17T11:03:09.773Z,99958.98
2019-05-17T11:05:40.283Z,99956.80
2019-05-17T11:08:10.751Z,99961.06
2019-05-17T11:10:39.426Z,99964.47
2019-05-17T11:13:08.110Z,99964.02
2019-05-17T11:15:36.535Z,99960.59
2019-05-17T11:18:05.022Z,99962.77
2019-05-17T11:20:33.567Z,99961.50
2019-05-17T11:23:02.099Z,99953.38
2019-05-17T11:25:30.602Z,99960.25
2019-05-17T11:27:59.023Z,99961.97
2019-05-17T11:30:27.416Z,99961.56
2019-05-17T11:32:55.914Z,99960.72
2019-05-17T11:35:24.837Z,99965.00
2019-05-17T11:37:53.375Z,99968.00
2019-05-17T11:40:22.099Z,99977.41
2019-05-17T11:42:50.567Z,99971.43
2019-05-17T11:45:27.222Z,99967.20
2019-05-17T11:47:49.197Z,99969.33
2019-05-17T11:50:17.739Z,99963.83
2019-05-17T11:52:46.213Z,99968.54
2019-05-17T11:55:15.170Z,99962.57
2019-05-17T11:57:43.609Z,99963.44
2019-05-17T12:00:13.022Z,99956.98
2019-05-17T12:02:41.514Z,99955.30
2019-05-17T12:05:10.258Z,99950.99
2019-05-17T12:07:38.674Z,99954.34
2019-05-17T12:10:08.509Z,99956.03
2019-05-17T12:12:36.923Z,99958.15
2019-05-17T12:15:07.370Z,99955.98
2019-05-17T12:17:35.795Z,99959.83
2019-05-17T12:20:06.158Z,99954.27
2019-05-17T12:22:34.589Z,99955.14
2019-05-17T12:25:03.754Z,99955.98
2019-05-17T12:27:32.181Z,99955.24
2019-05-17T12:30:00.620Z,99953.60
2019-05-17T12:32:29.019Z,99951.55
2019-05-17T12:34:57.459Z,99957.92
2019-05-17T12:37:25.867Z,99952.38
2019-05-17T12:39:54.388Z,99952.37
2019-05-17T12:42:22.842Z,99951.84
2019-05-17T12:44:51.273Z,99949.16
2019-05-17T12:47:19.726Z,99948.30
2019-05-17T12:49:48.117Z,99944.01
2019-05-17T12:52:16.551Z,99940.52
2019-05-17T12:54:45.011Z,99945.19
2019-05-17T12:57:13.389Z,99942.63
2019-05-17T12:59:41.890Z,99945.30
2019-05-17T13:02:12.440Z,99945.71
2019-05-17T13:04:40.503Z,99937.14
2019-05-17T13:07:08.906Z,99937.09
2019-05-17T13:09:37.427Z,99932.78
2019-05-17T13:12:05.898Z,99931.05
2019-05-17T13:14:34.327Z,99933.20
2019-05-17T13:17:02.781Z,99934.05
2019-05-17T13:19:31.196Z,99937.02
2019-05-17T13:21:59.585Z,99933.58
2019-05-17T13:24:28.014Z,99927.97
2019-05-17T13:26:56.397Z,99926.66
2019-05-17T13:29:24.913Z,99932.55
2019-05-17T13:31:53.314Z,99929.61
2019-05-17T13:34:21.718Z,99921.04
2019-05-17T13:36:50.222Z,99918.72
2019-05-17T13:39:18.646Z,99918.50
2019-05-17T13:41:47.132Z,99914.95
2019-05-17T13:44:15.680Z,99914.05
2019-05-17T13:46:44.150Z,99907.98
2019-05-17T13:49:12.577Z,99908.92
2019-05-17T13:51:40.989Z,99906.20
2019-05-17T13:54:09.552Z,99904.89
2019-05-17T13:56:37.950Z,99903.66
2019-05-17T13:59:06.423Z,99902.75
2019-05-17T14:01:34.921Z,99903.97
2019-05-17T14:04:03.337Z,99898.35
2019-05-17T14:06:31.746Z,99897.91
2019-05-17T14:09:00.141Z,99907.70
2019-05-17T14:11:28.644Z,99907.34
2019-05-17T14:13:57.062Z,99905.16
2019-05-17T14:16:25.645Z,99901.70
2019-05-17T14:18:54.031Z,99899.58
2019-05-17T14:21:22.521Z,99898.69
2019-05-17T14:23:50.979Z,99900.32
2019-05-17T14:26:19.401Z,99900.67
2019-05-17T14:28:47.878Z,99906.59
2019-05-17T14:31:16.310Z,99901.11
2019-05-17T14:33:44.745Z,99904.44
2019-05-17T14:36:13.130Z,99903.08
2019-05-17T14:38:41.611Z,99887.65
2019-05-17T14:41:10.137Z,99890.58
2019-05-17T14:43:38.520Z,99888.91
2019-05-17T14:46:06.965Z,99889.67
2019-05-17T14:48:35.512Z,99888.78
2019-05-17T14:51:04.020Z,99886.73
2019-05-17T14:53:32.418Z,99890.15
2019-05-17T14:56:00.845Z,99887.13
2019-05-17T14:58:29.263Z,99887.51
2019-05-17T15:00:57.753Z,99884.05
2019-05-17T15:03:26.174Z,99881.08
2019-05-17T15:05:54.562Z,99880.11
2019-05-17T15:08:23.055Z,99883.44
2019-05-17T15:10:51.539Z,99878.73
2019-05-17T15:13:19.981Z,99877.39
2019-05-17T15:15:48.522Z,99872.95
2019-05-17T15:18:16.953Z,99875.97
2019-05-17T15:20:45.584Z,99870.00
2019-05-17T15:23:14.069Z,99865.30
2019-05-17T15:25:42.483Z,99862.36
2019-05-17T15:28:10.992Z,99852.52
2019-05-17T15:30:39.465Z,99855.11
2019-05-17T15:33:08.735Z,99847.28
2019-05-17T15:35:37.132Z,99845.95
2019-05-17T15:38:05.670Z,99838.25
2019-05-17T15:40:34.109Z,99842.09
2019-05-17T15:43:02.548Z,99838.61
2019-05-17T15:45:30.987Z,99832.06
2019-05-17T15:47:59.405Z,99827.25
2019-05-17T15:50:27.943Z,99826.31
2019-05-17T15:52:56.424Z,99833.16
2019-05-17T15:55:25.010Z,99823.36
2019-05-17T15:57:53.410Z,99825.41
2019-05-17T16:00:21.976Z,99823.12
2019-05-17T16:02:50.534Z,99819.13
2019-05-17T16:05:19.107Z,99812.58
2019-05-17T16:07:47.589Z,99807.33
2019-05-17T16:10:16.345Z,99805.88
2019-05-17T16:13:00.813Z,99811.75
2019-05-17T16:15:15.124Z,99804.94
2019-05-17T16:17:43.616Z,99807.31
2019-05-17T16:20:16.705Z,99803.66
2019-05-17T16:22:43.733Z,99804.44
2019-05-17T16:25:12.379Z,99797.45
2019-05-17T16:27:40.942Z,99793.52
2019-05-17T16:30:09.901Z,99796.50
2019-05-17T16:32:38.316Z,99795.09
2019-05-17T16:35:06.873Z,99794.48
2019-05-17T16:37:35.280Z,99792.56
2019-05-17T16:40:05.227Z,99786.52
2019-05-17T16:42:33.676Z,99793.73
2019-05-17T16:45:02.391Z,99792.38
2019-05-17T16:47:30.974Z,99790.57
2019-05-17T16:49:59.445Z,99787.14
2019-05-17T16:52:27.915Z,99787.59
2019-05-17T16:54:56.379Z,99783.28
2019-05-17T16:57:24.835Z,99776.34
2019-05-17T16:59:53.297Z,99781.79
2019-05-17T17:02:21.877Z,99778.30
2019-05-17T17:04:50.391Z,99777.88
2019-05-17T17:07:18.894Z,99778.37
2019-05-17T17:09:47.367Z,99778.45
2019-05-17T17:12:15.829Z,99774.25
2019-05-17T17:14:44.257Z,99777.72
2019-05-17T17:17:13.483Z,99779.93
2019-05-17T17:19:42.204Z,99779.52
2019-05-17T17:22:10.615Z,99780.41
2019-05-17T17:24:39.080Z,99784.67
2019-05-17T17:27:07.497Z,99785.13
2019-05-17T17:29:35.984Z,99789.91
2019-05-17T17:32:04.456Z,99781.84
2019-05-17T17:34:32.857Z,99782.77
2019-05-17T17:37:01.337Z,99778.09
2019-05-17T17:39:29.761Z,99776.88
2019-05-17T17:41:58.173Z,99775.62
2019-05-17T17:44:26.654Z,99780.37
2019-05-17T17:46:55.054Z,99779.59
2019-05-17T17:49:23.497Z,99775.84
2019-05-17T17:51:51.893Z,99776.70
2019-05-17T17:54:20.302Z,99785.78
2019-05-17T17:56:48.862Z,99783.28
2019-05-17T17:59:17.351Z,99788.91
2019-05-17T18:01:45.963Z,99786.80
2019-05-17T18:04:14.527Z,99780.87
2019-05-17T18:06:42.968Z,99779.63
2019-05-17T18:09:11.381Z,99783.92
2019-05-17T18:11:39.943Z,99787.02
2019-05-17T18:14:13.459Z,99786.67
2019-05-17T18:16:38.567Z,99786.64
2019-05-17T18:19:07.125Z,99787.52
2019-05-17T18:21:35.562Z,99785.83
2019-05-17T18:24:04.217Z,99784.98
2019-05-17T18:26:32.617Z,99782.44
2019-05-17T18:29:01.045Z,99782.88
2019-05-17T18:31:29.464Z,99785.89
2019-05-17T18:33:57.965Z,99782.03
2019-05-17T18:36:26.358Z,99784.67
2019-05-17T18:38:55.209Z,99780.81
2019-05-17T18:41:23.710Z,99789.45
2019-05-17T18:43:52.274Z,99787.35
2019-05-17T18:46:21.274Z,99786.53
2019-05-17T18:48:49.738Z,99789.99
2019-05-17T18:51:18.218Z,99793.45
2019-05-17T18:53:46.759Z,99793.52
2019-05-17T18:56:15.167Z,99790.13
2019-05-17T18:58:43.608Z,99790.59
2019-05-17T19:01:12.137Z,99788.02
2019-05-17T19:03:40.627Z,99782.50
2019-05-17T19:06:09.111Z,99790.22
2019-05-17T19:08:37.575Z,99792.45
2019-05-17T19:11:06.280Z,99787.77
2019-05-17T19:13:34.715Z,99792.55
2019-05-17T19:16:03.277Z,99793.45
2019-05-17T19:18:31.753Z,99791.76
2019-05-17T19:21:00.156Z,99798.25
2019-05-17T19:23:28.660Z,99803.91
2019-05-17T19:25:57.064Z,99807.36
2019-05-17T19:28:25.548Z,99808.27
2019-05-17T19:30:53.965Z,99803.20
2019-05-17T19:33:22.445Z,99811.45
2019-05-17T19:35:50.950Z,99812.80
2019-05-17T19:38:19.441Z,99809.34
2019-05-17T19:40:47.990Z,99815.34
2019-05-17T19:43:16.420Z,99815.75
2019-05-17T19:45:45.305Z,99812.36
2019-05-17T19:48:13.796Z,99812.83
2019-05-17T19:50:42.331Z,99817.21
2019-05-17T19:53:10.894Z,99821.09
2019-05-17T19:55:39.319Z,99816.00
2019-05-17T19:58:07.748Z,99819.16
2019-05-17T20:00:36.316Z,99818.80
2019-05-17T20:03:04.902Z,99824.78
2019-05-17T20:05:33.317Z,99826.07
2019-05-17T20:08:01.738Z,99820.13
2019-05-17T20:10:30.231Z,99820.16
2019-05-17T20:12:58.687Z,99815.84
2019-05-17T20:15:34.583Z,99819.26
2019-05-17T20:17:57.219Z,99818.00
2019-05-17T20:20:25.622Z,99820.20
2019-05-17T20:22:54.112Z,99815.48
2019-05-17T20:25:23.844Z,99819.34
2019-05-17T20:27:52.409Z,99815.89
2019-05-17T20:30:20.997Z,99811.21
2019-05-17T20:32:49.487Z,99808.66
2019-05-17T20:35:18.166Z,99808.30
2019-05-17T20:37:46.540Z,99812.98
2019-05-17T20:40:16.291Z,99816.04
2019-05-17T20:42:44.712Z,99810.08
2019-05-17T20:45:13.340Z,99808.48
2019-05-17T20:47:41.846Z,99812.78
2019-05-17T20:50:11.083Z,99807.61
2019-05-17T20:52:39.587Z,99816.14
2019-05-17T20:55:09.328Z,99811.52
2019-05-17T20:57:37.760Z,99808.13
2019-05-17T21:00:09.926Z,99808.55
2019-05-17T21:02:38.318Z,99804.67
2019-05-17T21:05:07.089Z,99804.27
2019-05-17T21:07:35.521Z,99798.25
2019-05-17T21:10:08.153Z,99804.22
2019-05-17T21:12:36.583Z,99802.93
2019-05-17T21:15:06.716Z,99806.78
2019-05-17T21:17:35.130Z,99805.94
2019-05-17T21:20:04.893Z,99802.95
2019-05-17T21:22:33.296Z,99805.14
2019-05-17T21:25:01.746Z,99800.00
2019-05-17T21:27:30.255Z,99804.28
2019-05-17T21:29:58.668Z,99800.43
2019-05-17T21:32:27.066Z,99794.87
2019-05-17T21:34:55.509Z,99800.95
2019-05-17T21:37:23.993Z,99799.66
2019-05-17T21:39:52.400Z,99799.30
2019-05-17T21:42:20.853Z,99802.77
2019-05-17T21:44:49.369Z,99794.59
2019-05-17T21:47:17.782Z,99795.03
2019-05-17T21:49:46.211Z,99794.62
2019-05-17T21:52:14.634Z,99791.24
2019-05-17T21:54:43.045Z,99789.95
2019-05-17T21:57:11.464Z,99789.08
2019-05-17T21:59:39.908Z,99788.28
2019-05-17T22:02:08.472Z,99787.82
2019-05-17T22:04:37.712Z,99792.53
2019-05-17T22:07:06.327Z,99790.83
2019-05-17T22:09:34.752Z,99796.87
2019-05-17T22:12:04.869Z,99799.97
2019-05-17T22:14:33.345Z,99800.49
2019-05-17T22:17:01.835Z,99793.75
2019-05-17T22:19:30.236Z,99786.97
2019-05-17T22:21:58.636Z,99791.31
2019-05-17T22:24:27.039Z,99786.19
2019-05-17T22:26:55.474Z,99794.31
2019-05-17T22:29:23.888Z,99787.05
2019-05-17T22:31:52.305Z,99793.92
2019-05-17T22:34:20.701Z,99788.88
2019-05-17T22:36:49.119Z,99783.81
2019-05-17T22:39:17.633Z,99787.38
2019-05-17T22:41:46.054Z,99780.97
2019-05-17T22:44:14.487Z,99785.73
2019-05-17T22:46:42.917Z,99774.64
2019-05-17T22:49:11.322Z,99774.64
2019-05-17T22:51:39.762Z,99776.75
2019-05-17T22:54:08.176Z,99772.87
2019-05-17T22:56:36.578Z,99774.64
2019-05-17T22:59:05.159Z,99772.73
2019-05-17T23:01:33.609Z,99777.48
2019-05-17T23:04:02.052Z,99787.05
2019-05-17T23:06:30.451Z,99785.45
2019-05-17T23:08:58.858Z,99782.92
2019-05-17T23:11:27.265Z,99788.91
2019-05-17T23:13:55.675Z,99783.80
2019-05-17T23:16:24.081Z,99792.77
2019-05-17T23:18:56.703Z,99792.34
2019-05-17T23:21:25.112Z,99788.50
2019-05-17T23:23:53.528Z,99787.20
2019-05-17T23:26:22.016Z,99790.65
2019-05-17T23:28:50.448Z,99791.50
2019-05-17T23:31:18.853Z,99785.91
2019-05-17T23:33:47.256Z,99786.73
2019-05-17T23:36:15.666Z,99776.96
2019-05-17T23:38:44.065Z,99786.41
2019-05-17T23:41:12.482Z,99791.14
2019-05-17T23:43:40.985Z,99789.94
2019-05-17T23:46:09.393Z,99787.48
2019-05-17T23:48:37.844Z,99792.63
2019-05-17T23:51:06.267Z,99783.73
2019-05-17T23:53:34.664Z,99788.02
2019-05-17T23:56:03.100Z,99787.17
2019-05-17T23:58:31.524Z,99786.31
